createdAt,value
2019-05-03T00:02:09.746Z,71.10
2019-05-03T00:04:38.965Z,70.80
2019-05-03T00:07:07.537Z,70.30
2019-05-03T00:09:35.987Z,71.00
2019-05-03T00:12:04.694Z,71.30
2019-05-03T00:14:33.447Z,71.40
2019-05-03T00:17:02.351Z,70.80
2019-05-03T00:19:32.598Z,70.90
2019-05-03T00:22:02.156Z,70.70
2019-05-03T00:24:32.150Z,71.60
2019-05-03T00:27:01.952Z,72.00
2019-05-03T00:29:32.382Z,72.50
2019-05-03T00:32:01.976Z,72.70
2019-05-03T00:34:47.335Z,72.50
2019-05-03T00:37:23.550Z,72.30
2019-05-03T00:39:56.370Z,72.30
2019-05-03T00:42:24.806Z,70.30
2019-05-03T00:44:54.877Z,71.20
2019-05-03T00:47:23.322Z,69.40
2019-05-03T00:49:51.907Z,69.10
2019-05-03T00:52:22.255Z,70.20
2019-05-03T00:54:52.744Z,70.70
2019-05-03T00:57:22.659Z,71.80
2019-05-03T00:59:52.779Z,72.60
2019-05-03T01:02:22.312Z,73.00
2019-05-03T01:04:51.806Z,74.00
2019-05-03T01:07:22.304Z,74.70
2019-05-03T01:09:51.813Z,74.90
2019-05-03T01:12:21.988Z,74.80
2019-05-03T01:14:52.252Z,75.60
2019-05-03T01:17:22.440Z,75.90
2019-05-03T01:19:52.168Z,75.80
2019-05-03T01:22:22.441Z,76.00
2019-05-03T01:24:51.803Z,76.40
2019-05-03T01:27:22.042Z,77.30
2019-05-03T01:29:51.932Z,75.60
2019-05-03T01:32:22.265Z,75.10
2019-05-03T01:34:52.329Z,74.30
2019-05-03T01:37:22.702Z,73.60
2019-05-03T01:39:52.577Z,73.70
2019-05-03T01:42:22.871Z,74.10
2019-05-03T01:44:52.218Z,74.40
2019-05-03T01:47:22.543Z,75.30
2019-05-03T01:49:52.649Z,76.40
2019-05-03T01:52:28.490Z,76.30
2019-05-03T01:54:57.006Z,77.40
2019-05-03T01:57:25.462Z,78.70
2019-05-03T01:59:53.915Z,79.80
2019-05-03T02:02:32.914Z,79.80
2019-05-03T02:05:18.939Z,80.40
2019-05-03T02:07:48.645Z,81.20
2019-05-03T02:10:17.374Z,81.40
2019-05-03T02:12:45.808Z,81.30
2019-05-03T02:15:14.642Z,81.90
2019-05-03T02:17:43.162Z,82.10
2019-05-03T02:20:12.626Z,82.30
2019-05-03T02:22:42.769Z,82.20
2019-05-03T02:25:12.419Z,82.60
2019-05-03T02:27:42.265Z,82.60
2019-05-03T02:30:14.109Z,81.90
2019-05-03T02:32:44.005Z,81.50
2019-05-03T02:35:13.976Z,81.70
2019-05-03T02:37:44.100Z,82.10
2019-05-03T02:40:13.653Z,82.60
2019-05-03T02:42:46.094Z,83.20
2019-05-03T02:45:16.133Z,82.70
2019-05-03T02:47:52.206Z,82.60
2019-05-03T02:50:20.667Z,82.50
2019-05-03T02:52:49.083Z,81.90
2019-05-03T02:55:17.784Z,81.90
2019-05-03T02:57:46.913Z,82.40
2019-05-03T03:00:16.647Z,82.30
2019-05-03T03:02:45.719Z,82.80
2019-05-03T03:05:16.710Z,83.00
2019-05-03T03:07:46.298Z,83.70
2019-05-03T03:10:16.268Z,83.90
2019-05-03T03:12:46.738Z,83.70
2019-05-03T03:15:16.363Z,84.00
2019-05-03T03:17:46.948Z,84.20
2019-05-03T03:20:17.598Z,84.30
2019-05-03T03:22:49.104Z,84.20
2019-05-03T03:25:22.266Z,84.60
2019-05-03T03:27:52.713Z,84.80
2019-05-03T03:30:38.149Z,84.80
2019-05-03T03:33:09.060Z,84.70
2019-05-03T03:35:39.547Z,84.90
2019-05-03T03:38:08.229Z,85.20
2019-05-03T03:40:38.624Z,85.20
2019-05-03T03:43:09.329Z,85.10
2019-05-03T03:45:39.362Z,84.90
2019-05-03T03:48:10.115Z,84.80
2019-05-03T03:50:41.762Z,84.80
2019-05-03T03:53:12.013Z,84.90
2019-05-03T03:55:45.642Z,85.00
2019-05-03T03:58:17.708Z,85.40
2019-05-03T04:00:46.164Z,85.60
2019-05-03T04:03:15.752Z,85.50
2019-05-03T04:05:46.782Z,85.30
2019-05-03T04:08:16.187Z,84.90
2019-05-03T04:10:46.397Z,85.00
2019-05-03T04:13:16.275Z,84.70
2019-05-03T04:15:56.132Z,84.50
2019-05-03T04:18:26.880Z,84.60
2019-05-03T04:20:56.202Z,84.40
2019-05-03T04:23:26.339Z,84.30
2019-05-03T04:25:56.724Z,84.20
2019-05-03T04:28:25.625Z,84.10
2019-05-03T04:30:55.430Z,83.90
2019-05-03T04:33:26.642Z,83.20
2019-05-03T04:35:55.687Z,83.10
2019-05-03T04:38:25.581Z,82.90
2019-05-03T04:40:56.139Z,82.50
2019-05-03T04:43:26.524Z,82.40
2019-05-03T04:46:02.107Z,81.50
2019-05-03T04:48:30.554Z,81.70
2019-05-03T04:50:58.992Z,81.50
2019-05-03T04:53:27.919Z,81.90
2019-05-03T04:55:56.364Z,81.70
2019-05-03T04:58:26.356Z,81.10
2019-05-03T05:00:55.400Z,81.40
2019-05-03T05:03:26.429Z,81.70
2019-05-03T05:05:55.846Z,81.10
2019-05-03T05:08:25.267Z,81.60
2019-05-03T05:10:55.970Z,80.50
2019-05-03T05:13:25.049Z,80.10
2019-05-03T05:15:55.063Z,79.90
2019-05-03T05:18:31.150Z,79.90
2019-05-03T05:21:14.970Z,79.40
2019-05-03T05:24:00.225Z,78.80
2019-05-03T05:26:36.343Z,77.60
2019-05-03T05:29:06.505Z,78.50
2019-05-03T05:31:35.647Z,78.10
2019-05-03T05:34:05.490Z,78.10
2019-05-03T05:36:34.795Z,77.30
2019-05-03T05:39:05.230Z,78.50
2019-05-03T05:41:34.785Z,78.70
2019-05-03T05:44:05.269Z,77.70
2019-05-03T05:46:35.331Z,76.20
2019-05-03T05:49:05.421Z,73.50
2019-05-03T05:51:35.316Z,73.20
2019-05-03T05:54:05.217Z,74.70
2019-05-03T05:56:50.610Z,73.00
2019-05-03T05:59:20.694Z,72.30
2019-05-03T06:01:50.785Z,74.40
2019-05-03T06:04:19.214Z,73.70
2019-05-03T06:06:55.364Z,74.20
2019-05-03T06:09:40.723Z,73.60
2019-05-03T06:12:14.847Z,74.20
2019-05-03T06:14:45.632Z,71.80
2019-05-03T06:17:21.567Z,71.00
2019-05-03T06:19:51.647Z,69.60
2019-05-03T06:22:34.584Z,70.90
2019-05-03T06:25:20.492Z,70.60
2019-05-03T06:27:48.942Z,70.20
2019-05-03T06:30:19.274Z,69.40
2019-05-03T06:32:47.847Z,69.20
2019-05-03T06:35:16.425Z,68.60
2019-05-03T06:37:46.117Z,68.00
2019-05-03T06:40:15.274Z,67.40
2019-05-03T06:42:52.513Z,67.50
2019-05-03T06:45:15.064Z,67.40
2019-05-03T06:47:46.027Z,68.80
2019-05-03T06:50:14.632Z,68.60
2019-05-03T06:52:44.542Z,68.20
2019-05-03T06:55:14.517Z,68.40
2019-05-03T06:57:49.186Z,68.00
2019-05-03T07:00:24.791Z,68.10
2019-05-03T07:03:04.911Z,66.90
2019-05-03T07:05:50.156Z,65.90
2019-05-03T07:08:37.703Z,67.20
2019-05-03T07:11:10.047Z,67.10
2019-05-03T07:13:38.576Z,68.40
2019-05-03T07:16:07.002Z,68.30
2019-05-03T07:18:35.479Z,67.20
2019-05-03T07:21:04.860Z,68.50
2019-05-03T07:23:35.002Z,69.80
2019-05-03T07:26:05.411Z,69.60
2019-05-03T07:28:46.236Z,71.10
2019-05-03T07:31:04.891Z,71.60
2019-05-03T07:33:34.947Z,72.30
2019-05-03T07:36:05.321Z,71.70
2019-05-03T07:38:35.105Z,72.30
2019-05-03T07:41:05.331Z,72.40
2019-05-03T07:43:36.188Z,74.30
2019-05-03T07:46:05.677Z,75.00
2019-05-03T07:48:35.313Z,73.80
2019-05-03T07:51:05.471Z,74.00
2019-05-03T07:53:34.920Z,70.00
2019-05-03T07:56:11.443Z,70.00
2019-05-03T07:58:41.530Z,69.40
2019-05-03T08:01:20.891Z,69.60
2019-05-03T08:03:49.330Z,67.10
2019-05-03T08:06:17.919Z,66.80
2019-05-03T08:08:46.374Z,64.80
2019-05-03T08:11:14.796Z,64.80
2019-05-03T08:13:44.693Z,65.30
2019-05-03T08:16:13.320Z,66.30
2019-05-03T08:18:41.743Z,67.30
2019-05-03T08:21:10.259Z,68.30
2019-05-03T08:23:38.867Z,69.90
2019-05-03T08:26:07.396Z,69.80
2019-05-03T08:28:35.826Z,69.60
2019-05-03T08:31:09.361Z,68.50
2019-05-03T08:33:39.415Z,68.00
2019-05-03T08:36:07.875Z,65.10
2019-05-03T08:38:36.311Z,64.90
2019-05-03T08:41:06.570Z,65.30
2019-05-03T08:43:35.784Z,65.40
2019-05-03T08:46:04.675Z,65.80
2019-05-03T08:48:35.239Z,60.40
2019-05-03T08:51:04.565Z,52.00
2019-05-03T08:53:35.628Z,58.40
2019-05-03T08:56:05.134Z,60.90
2019-05-03T08:58:34.798Z,51.90
2019-05-03T09:01:05.495Z,50.30
2019-05-03T09:03:36.410Z,59.00
2019-05-03T09:06:04.826Z,43.20
2019-05-03T09:08:35.357Z,43.80
2019-05-03T09:11:07.941Z,41.90
2019-05-03T09:13:55.775Z,44.50
2019-05-03T09:16:25.160Z,43.30
2019-05-03T09:18:54.924Z,40.10
2019-05-03T09:21:25.506Z,39.00
2019-05-03T09:23:55.391Z,43.00
2019-05-03T09:26:28.957Z,38.50
2019-05-03T09:28:55.601Z,36.50
2019-05-03T09:31:24.968Z,42.20
2019-05-03T09:33:54.809Z,37.20
2019-05-03T09:36:25.319Z,38.00
2019-05-03T09:38:54.929Z,35.80
2019-05-03T09:41:25.597Z,32.00
2019-05-03T09:43:55.506Z,36.30
2019-05-03T09:46:26.310Z,29.00
2019-05-03T09:49:03.560Z,35.30
2019-05-03T09:51:25.544Z,34.00
2019-05-03T09:53:55.971Z,31.00
2019-05-03T09:56:47.992Z,31.40
2019-05-03T09:59:14.648Z,30.90
2019-05-03T10:01:45.434Z,29.50
2019-05-03T10:04:13.103Z,30.10
2019-05-03T10:06:41.538Z,29.80
2019-05-03T10:09:10.007Z,30.90
2019-05-03T10:11:38.490Z,29.10
2019-05-03T10:14:07.105Z,29.30
2019-05-03T10:16:37.344Z,29.00
2019-05-03T10:19:05.832Z,29.60
2019-05-03T10:21:35.901Z,29.40
2019-05-03T10:24:05.687Z,29.10
2019-05-03T10:26:35.613Z,28.50
2019-05-03T10:29:05.432Z,29.30
2019-05-03T10:31:35.714Z,30.70
2019-05-03T10:34:05.831Z,30.60
2019-05-03T10:36:36.811Z,30.60
2019-05-03T10:39:06.007Z,31.30
2019-05-03T10:41:34.850Z,29.80
2019-05-03T10:44:03.459Z,30.00
2019-05-03T10:46:32.091Z,31.00
2019-05-03T10:49:00.538Z,33.10
2019-05-03T10:51:30.592Z,32.20
2019-05-03T10:54:00.089Z,32.20
2019-05-03T10:56:30.212Z,32.20
2019-05-03T10:59:09.672Z,29.80
2019-05-03T11:01:39.764Z,29.10
2019-05-03T11:04:08.399Z,28.30
2019-05-03T11:06:36.911Z,29.00
2019-05-03T11:09:06.397Z,28.80
2019-05-03T11:11:35.324Z,29.70
2019-05-03T11:14:05.507Z,29.20
2019-05-03T11:16:35.144Z,29.00
2019-05-03T11:19:05.473Z,28.40
2019-05-03T11:21:34.718Z,29.90
2019-05-03T11:24:03.475Z,30.40
2019-05-03T11:26:34.708Z,31.10
2019-05-03T11:29:02.352Z,29.80
2019-05-03T11:31:48.528Z,30.60
2019-05-03T11:34:22.786Z,29.10
2019-05-03T11:36:54.927Z,30.10
2019-05-03T11:39:25.092Z,31.80
2019-05-03T11:41:55.366Z,31.20
2019-05-03T11:44:37.256Z,29.60
2019-05-03T11:47:06.003Z,29.30
2019-05-03T11:49:34.914Z,29.00
2019-05-03T11:52:06.253Z,28.60
2019-05-03T11:54:35.736Z,28.60
2019-05-03T11:57:08.902Z,27.30
2019-05-03T11:59:37.319Z,28.60
2019-05-03T12:02:15.248Z,28.60
2019-05-03T12:04:45.234Z,29.90
2019-05-03T12:07:18.189Z,28.70
2019-05-03T12:09:45.699Z,29.10
2019-05-03T12:12:15.779Z,30.80
2019-05-03T12:14:45.343Z,30.80
2019-05-03T12:17:25.837Z,28.90
2019-05-03T12:19:49.617Z,28.90
2019-05-03T12:22:19.275Z,29.00
2019-05-03T12:24:50.181Z,29.00
2019-05-03T12:27:19.101Z,29.10
2019-05-03T12:29:47.549Z,28.10
2019-05-03T12:32:15.983Z,29.00
2019-05-03T12:34:44.532Z,29.10
2019-05-03T12:37:15.446Z,27.40
2019-05-03T12:39:43.230Z,27.20
2019-05-03T12:42:11.691Z,27.50
2019-05-03T12:44:40.117Z,27.20
2019-05-03T12:47:08.692Z,27.70
2019-05-03T12:49:37.134Z,26.80
2019-05-03T12:52:05.860Z,26.30
2019-05-03T12:54:35.543Z,26.30
2019-05-03T12:57:05.191Z,26.90
2019-05-03T12:59:41.931Z,26.40
2019-05-03T13:02:12.021Z,26.90
2019-05-03T13:04:42.091Z,26.90
2019-05-03T13:07:20.827Z,26.10
2019-05-03T13:09:49.471Z,25.70
2019-05-03T13:12:19.555Z,26.30
2019-05-03T13:14:48.062Z,27.70
2019-05-03T13:17:18.132Z,26.40
2019-05-03T13:19:46.574Z,27.90
2019-05-03T13:22:14.982Z,27.20
2019-05-03T13:24:45.210Z,28.40
2019-05-03T13:27:14.909Z,26.50
2019-05-03T13:29:45.340Z,27.70
2019-05-03T13:32:13.942Z,26.70
2019-05-03T13:34:44.556Z,26.50
2019-05-03T13:37:14.875Z,25.90
2019-05-03T13:39:44.916Z,26.30
2019-05-03T13:42:12.955Z,25.50
2019-05-03T13:44:41.402Z,26.10
2019-05-03T13:47:09.830Z,26.20
2019-05-03T13:49:38.272Z,26.20
2019-05-03T13:52:06.719Z,26.00
2019-05-03T13:54:35.222Z,27.20
2019-05-03T13:57:05.069Z,26.00
2019-05-03T13:59:33.655Z,25.80
2019-05-03T14:02:12.512Z,25.90
2019-05-03T14:04:35.777Z,26.00
2019-05-03T14:07:04.520Z,25.50
2019-05-03T14:09:34.699Z,24.90
2019-05-03T14:12:05.543Z,25.10
2019-05-03T14:14:51.042Z,25.70
2019-05-03T14:17:19.499Z,25.70
2019-05-03T14:19:49.775Z,26.40
2019-05-03T14:22:19.182Z,26.20
2019-05-03T14:24:47.646Z,25.60
2019-05-03T14:27:17.179Z,26.30
2019-05-03T14:29:45.767Z,25.90
2019-05-03T14:32:25.351Z,26.10
2019-05-03T14:34:45.396Z,25.60
2019-05-03T14:37:13.940Z,26.10
2019-05-03T14:39:42.376Z,25.90
2019-05-03T14:42:10.970Z,25.00
2019-05-03T14:44:39.400Z,25.10
2019-05-03T14:47:07.847Z,25.50
2019-05-03T14:49:36.278Z,24.20
2019-05-03T14:52:05.529Z,25.20
2019-05-03T14:54:35.910Z,25.10
2019-05-03T14:57:25.831Z,25.60
2019-05-03T15:00:02.236Z,26.10
2019-05-03T15:02:40.941Z,26.20
2019-05-03T15:05:02.554Z,25.70
2019-05-03T15:07:30.998Z,25.90
2019-05-03T15:09:59.437Z,25.40
2019-05-03T15:12:27.900Z,25.50
2019-05-03T15:14:56.343Z,26.10
2019-05-03T15:17:24.831Z,26.10
2019-05-03T15:19:54.680Z,25.70
2019-05-03T15:22:25.315Z,26.10
2019-05-03T15:24:54.537Z,25.60
2019-05-03T15:27:24.861Z,26.50
2019-05-03T15:29:55.364Z,27.00
2019-05-03T15:32:23.792Z,26.10
2019-05-03T15:34:52.295Z,26.40
2019-05-03T15:37:20.746Z,26.70
2019-05-03T15:39:49.245Z,27.40
2019-05-03T15:42:19.043Z,26.60
2019-05-03T15:44:52.108Z,26.70
2019-05-03T15:47:27.763Z,27.60
2019-05-03T15:49:56.183Z,26.80
2019-05-03T15:52:24.765Z,26.40
2019-05-03T15:54:55.083Z,27.00
2019-05-03T15:57:25.182Z,26.00
2019-05-03T15:59:55.200Z,26.50
2019-05-03T16:02:24.699Z,26.40
2019-05-03T16:04:55.687Z,27.10
2019-05-03T16:07:25.026Z,27.10
2019-05-03T16:09:55.289Z,26.60
2019-05-03T16:12:23.968Z,25.80
2019-05-03T16:14:52.446Z,26.00
2019-05-03T16:17:20.861Z,25.20
2019-05-03T16:19:49.310Z,25.50
2019-05-03T16:22:17.752Z,25.40
2019-05-03T16:24:47.126Z,24.70
2019-05-03T16:27:29.665Z,24.50
2019-05-03T16:29:58.773Z,24.40
2019-05-03T16:32:27.182Z,24.50
2019-05-03T16:34:55.634Z,24.70
2019-05-03T16:37:25.473Z,25.50
2019-05-03T16:39:55.055Z,25.50
2019-05-03T16:42:24.593Z,25.10
2019-05-03T16:44:54.893Z,25.80
2019-05-03T16:47:24.838Z,25.60
2019-05-03T16:49:53.455Z,26.10
2019-05-03T16:52:21.951Z,25.60
2019-05-03T16:54:50.411Z,25.70
2019-05-03T16:57:18.865Z,25.90
2019-05-03T16:59:47.387Z,25.70
2019-05-03T17:02:17.481Z,25.40
2019-05-03T17:04:53.187Z,26.30
2019-05-03T17:07:26.233Z,26.60
2019-05-03T17:09:56.294Z,27.30
2019-05-03T17:12:26.392Z,26.50
2019-05-03T17:14:57.131Z,26.70
2019-05-03T17:17:25.289Z,27.20
2019-05-03T17:19:55.130Z,27.40
2019-05-03T17:22:25.217Z,26.10
2019-05-03T17:24:53.723Z,26.40
2019-05-03T17:27:22.155Z,26.40
2019-05-03T17:29:50.576Z,26.00
2019-05-03T17:32:19.039Z,25.80
2019-05-03T17:34:47.535Z,25.30
2019-05-03T17:37:16.015Z,25.30
2019-05-03T17:39:46.075Z,26.10
2019-05-03T17:42:19.147Z,26.20
2019-05-03T17:44:48.034Z,25.90
2019-05-03T17:47:16.487Z,26.00
2019-05-03T17:49:45.230Z,26.00
2019-05-03T17:52:15.552Z,26.30
2019-05-03T17:54:45.625Z,25.80
2019-05-03T17:57:21.983Z,25.60
2019-05-03T17:59:52.200Z,25.40
2019-05-03T18:02:22.306Z,25.30
2019-05-03T18:05:08.877Z,25.50
2019-05-03T18:07:41.811Z,25.50
2019-05-03T18:10:10.876Z,25.60
2019-05-03T18:12:39.333Z,26.90
2019-05-03T18:15:08.200Z,27.30
2019-05-03T18:17:36.714Z,27.90
2019-05-03T18:20:06.746Z,28.10
2019-05-03T18:22:36.795Z,28.40
2019-05-03T18:25:06.451Z,28.80
2019-05-03T18:27:35.368Z,27.90
2019-05-03T18:30:06.364Z,28.10
2019-05-03T18:32:35.043Z,29.10
2019-05-03T18:35:04.905Z,28.90
2019-05-03T18:37:34.983Z,29.40
2019-05-03T18:40:05.084Z,29.70
2019-05-03T18:42:35.341Z,30.00
2019-05-03T18:45:10.249Z,30.00
2019-05-03T18:47:38.682Z,30.00
2019-05-03T18:50:07.992Z,30.60
2019-05-03T18:52:36.407Z,31.80
2019-05-03T18:55:06.140Z,31.50
2019-05-03T18:57:36.288Z,32.60
2019-05-03T19:00:08.192Z,33.10
2019-05-03T19:02:36.844Z,33.50
2019-05-03T19:05:07.204Z,34.50
2019-05-03T19:07:54.617Z,34.70
2019-05-03T19:10:39.971Z,35.30
2019-05-03T19:13:14.835Z,34.90
2019-05-03T19:15:43.125Z,34.90
2019-05-03T19:18:13.250Z,34.90
2019-05-03T19:20:41.772Z,34.90
2019-05-03T19:23:10.195Z,33.30
2019-05-03T19:25:46.818Z,33.70
2019-05-03T19:28:08.866Z,33.40
2019-05-03T19:30:38.939Z,32.90
2019-05-03T19:33:07.521Z,34.10
2019-05-03T19:35:36.496Z,35.00
2019-05-03T19:38:05.321Z,34.90
2019-05-03T19:40:35.061Z,34.10
2019-05-03T19:43:05.289Z,35.30
2019-05-03T19:45:35.649Z,34.40
2019-05-03T19:48:04.728Z,35.50
2019-05-03T19:50:35.264Z,37.50
2019-05-03T19:53:15.266Z,37.90
2019-05-03T19:55:44.498Z,39.20
2019-05-03T19:58:14.443Z,38.50
2019-05-03T20:00:44.744Z,37.00
2019-05-03T20:03:15.486Z,36.70
2019-05-03T20:05:54.604Z,36.00
2019-05-03T20:08:30.659Z,36.70
2019-05-03T20:11:15.227Z,36.20
2019-05-03T20:13:45.152Z,36.80
2019-05-03T20:16:15.441Z,36.20
2019-05-03T20:18:45.416Z,35.10
2019-05-03T20:21:15.016Z,36.50
2019-05-03T20:23:44.731Z,36.60
2019-05-03T20:26:14.891Z,36.00
2019-05-03T20:28:45.137Z,34.60
2019-05-03T20:31:14.333Z,36.90
2019-05-03T20:33:42.786Z,37.40
2019-05-03T20:36:11.443Z,36.50
2019-05-03T20:38:39.887Z,64.20
2019-05-03T20:41:08.306Z,64.40
2019-05-03T20:43:41.019Z,64.70
2019-05-03T20:46:28.380Z,64.50
2019-05-03T20:48:58.614Z,64.70
2019-05-03T20:51:27.050Z,65.50
2019-05-03T20:53:55.512Z,66.30
2019-05-03T20:56:24.599Z,66.90
2019-05-03T20:58:55.015Z,67.00
2019-05-03T21:01:25.544Z,66.90
2019-05-03T21:03:56.358Z,66.20
2019-05-03T21:06:35.192Z,66.40
2019-05-03T21:08:56.476Z,66.30
2019-05-03T21:11:25.264Z,66.50
2019-05-03T21:13:53.778Z,66.50
2019-05-03T21:16:40.101Z,66.70
2019-05-03T21:19:10.195Z,67.30
2019-05-03T21:21:40.251Z,67.70
2019-05-03T21:24:24.193Z,68.30
2019-05-03T21:26:54.686Z,68.30
2019-05-03T21:29:23.379Z,68.50
2019-05-03T21:31:51.810Z,68.60
2019-05-03T21:34:21.883Z,68.30
2019-05-03T21:36:50.306Z,67.50
2019-05-03T21:39:18.766Z,67.70
2019-05-03T21:41:47.220Z,68.20
2019-05-03T21:44:31.175Z,69.00
2019-05-03T21:47:01.312Z,69.40
2019-05-03T21:49:40.516Z,69.50
2019-05-03T21:52:08.931Z,69.40
2019-05-03T21:54:37.380Z,69.60
2019-05-03T21:57:05.790Z,69.60
2019-05-03T21:59:35.382Z,69.00
2019-05-03T22:02:05.104Z,68.90
2019-05-03T22:04:35.134Z,68.90
2019-05-03T22:07:05.220Z,70.00
2019-05-03T22:09:34.841Z,70.60
2019-05-03T22:12:05.251Z,70.70
2019-05-03T22:14:35.550Z,71.40
2019-05-03T22:17:08.500Z,71.70
2019-05-03T22:19:36.943Z,70.90
2019-05-03T22:22:25.428Z,69.50
2019-05-03T22:24:55.671Z,68.90
2019-05-03T22:27:24.673Z,67.90
2019-05-03T22:29:54.586Z,68.80
2019-05-03T22:32:24.507Z,69.20
2019-05-03T22:34:53.398Z,68.80
2019-05-03T22:37:21.836Z,69.80
2019-05-03T22:39:50.293Z,70.30
2019-05-03T22:42:18.742Z,70.30
2019-05-03T22:44:47.163Z,71.10
2019-05-03T22:47:15.615Z,71.20
2019-05-03T22:49:45.634Z,70.40
2019-05-03T22:52:15.390Z,70.10
2019-05-03T22:54:45.079Z,69.30
2019-05-03T22:57:15.346Z,69.00
2019-05-03T22:59:45.662Z,70.60
2019-05-03T23:02:16.713Z,72.00
2019-05-03T23:04:44.778Z,71.90
2019-05-03T23:07:14.859Z,71.80
2019-05-03T23:09:44.672Z,72.10
2019-05-03T23:12:13.372Z,71.20
2019-05-03T23:14:41.800Z,71.20
2019-05-03T23:17:10.238Z,71.10
2019-05-03T23:19:40.290Z,70.20
2019-05-03T23:22:15.209Z,69.80
2019-05-03T23:24:43.239Z,71.40
2019-05-03T23:27:11.718Z,71.90
2019-05-03T23:29:40.127Z,69.30
2019-05-03T23:32:08.667Z,68.70
2019-05-03T23:34:37.221Z,69.50
2019-05-03T23:37:05.720Z,70.00
2019-05-03T23:39:34.173Z,71.00
2019-05-03T23:42:04.933Z,71.00
2019-05-03T23:44:35.153Z,70.30
2019-05-03T23:47:17.806Z,70.40
2019-05-03T23:49:46.242Z,71.20
2019-05-03T23:52:28.634Z,71.80
2019-05-03T23:54:58.805Z,71.60
2019-05-03T23:57:27.216Z,71.00
2019-05-03T23:59:56.906Z,71.00
